Latest Weather Observations for Hughenden

IDQ60801

Issued at 1:02 pm EST Thursday 2 April 2015 (issued every 30 minutes, with the page automatically refreshed every 10 minutes)

About weather observations | Map of weather stations | Latest weather observations for QLD | Other Formats
Station Details ID: 030022 Name: HUGHENDEN AIRPORT Lat: -20.82 Lon: 144.23 Height: 316.4 m
Data from the previous 72 hours. | See also: Recent months at Hughenden
Date/Time
EST
Temp
°C
App
Temp
°C
Dew
Point
Rel
Hum
%
Delta-T
°C
Wind Press
QNH
hPa
Press
MSL
hPa
Rain
since 9 am
mm
Dir
 
Spd
km/h
Gust
km/h
Spd
kts
Gust
kts
02/01:00pm 32.0 28.0 4.7 18 14.5 SE 15 24 8 13 1012.2 1010.4 0.0
02/12:30pm 31.2 27.9 6.3 21 13.5 SE 13 22 7 12 1012.7 1011.0 0.0
02/12:00pm 31.6 28.5 7.3 22 13.4 SE 13 20 7 11 1013.2 1011.5 0.0
02/11:30am 31.8 28.0 9.9 26 12.6 ESE 20 32 11 17 1013.7 1011.9 0.0
02/11:00am 31.9 28.8 12.2 30 11.8 ENE 20 32 11 17 1014.1 1012.3 0.0
02/10:30am 30.9 28.0 12.8 33 10.9 ENE 20 30 11 16 1014.3 1012.5 0.0
02/10:00am 30.2 27.4 14.3 38 9.7 ENE 22 32 12 17 1014.5 1012.7 0.0
02/09:30am 29.0 27.0 15.5 44 8.4 ENE 20 30 11 16 1014.8 1013.0 0.0
02/09:00am 27.6 25.1 16.2 49 7.1 ENE 24 28 13 15 1015.3 1013.5 0.0
02/08:30am 26.4 23.6 16.3 53 6.3 ENE 26 37 14 20 1015.2 1013.4 0.0
02/08:00am 25.2 23.8 16.9 60 5.2 ENE 20 26 11 14 1015.0 1013.2 0.0
02/07:30am 24.1 23.6 15.9 60 5.0 E 13 17 7 9 1014.8 1013.0 0.0
02/07:00am 22.7 22.0 15.3 63 4.5 ESE 13 15 7 8 1014.6 1012.8 0.0
02/06:30am 21.5 20.6 13.7 61 4.6 ESE 11 11 6 6 1014.3 1012.5 0.0
02/06:00am 22.0 20.0 12.8 56 5.3 E 15 19 8 10 1013.7 1011.9 0.0
02/05:30am 21.7 20.3 12.3 55 5.4 ESE 11 13 6 7 1013.6 1011.8 0.0
02/05:00am 22.4 21.1 12.4 53 5.8 SE 11 13 6 7 1013.3 1011.6 0.0
02/04:30am 22.6 21.5 12.0 51 6.1 SE 9 13 5 7 1012.8 1011.1 0.0
02/04:00am 23.4 20.7 11.8 48 6.6 E 17 20 9 11 1012.5 1010.8 0.0
02/03:30am 23.5 21.5 11.5 47 6.8 ESE 13 15 7 8 1012.6 1010.9 0.0
02/03:00am 24.0 21.7 11.7 46 7.1 ESE 15 20 8 11 1012.5 1010.8 0.0
02/02:30am 23.8 21.7 11.2 45 7.2 SE 13 17 7 9 1012.7 1011.0 0.0
02/02:00am 23.3 21.2 11.0 46 6.9 ESE 13 15 7 8 1013.0 1011.3 0.0
02/01:30am 23.1 21.3 10.9 46 6.9 SE 11 13 6 7 1013.3 1011.6 0.0
02/01:00am 23.3 22.2 10.7 45 7.1 ESE 7 9 4 5 1013.5 1011.7 0.0
02/12:30am 23.1 21.2 10.5 45 7.0 SSE 11 15 6 8 1013.8 1012.0 0.0
02/12:00am 24.1 21.9 10.7 43 7.6 S 13 17 7 9 1013.8 1012.0 0.0
 
Date/Time
EST
Temp
°C
App
Temp
°C
Dew
Point
Rel
Hum
%
Delta-T
°C
Wind Press
QNH
hPa
Press
MSL
hPa
Rain
since 9 am
mm
Dir
 
Spd
km/h
Gust
km/h
Spd
kts
Gust
kts
01/11:30pm 24.5 23.1 10.8 42 7.8 SE 9 11 5 6 1013.8 1012.0 0.0
01/11:00pm 25.0 23.5 10.5 40 8.2 SE 9 9 5 5 1013.9 1012.1 0.0
01/10:30pm 26.0 24.1 10.6 38 8.7 SE 11 11 6 6 1014.1 1012.3 0.0
01/10:00pm 27.1 25.4 9.9 34 9.7 SE 9 13 5 7 1014.1 1012.3 0.0
01/09:30pm 28.2 25.4 9.9 32 10.4 SE 15 20 8 11 1014.1 1012.3 0.0
01/09:00pm 28.7 25.9 9.9 31 10.7 SE 15 20 8 11 1013.8 1012.0 0.0
01/08:30pm 29.0 26.1 9.7 30 11.0 SE 15 20 8 11 1013.5 1011.7 0.0
01/08:00pm 29.3 27.0 10.4 31 10.9 SE 13 17 7 9 1012.9 1011.2 0.0
01/07:30pm 29.8 27.1 10.4 30 11.2 SE 15 19 8 10 1012.5 1010.8 0.0
01/07:00pm 30.2 27.8 10.2 29 11.5 SE 13 17 7 9 1012.1 1010.3 0.0
01/06:30pm 31.1 28.4 10.4 28 12.0 SE 15 17 8 9 1011.9 1010.1 0.0
01/06:00pm 32.1 29.0 10.2 26 12.7 SE 17 22 9 12 1011.5 1009.7 0.0
01/05:30pm 33.0 30.3 9.1 23 13.7 ESE 13 24 7 13 1011.4 1009.6 0.0
01/05:00pm 33.4 29.5 8.8 22 14.1 SE 19 26 10 14 1011.3 1009.5 0.0
01/04:30pm 33.6 30.3 9.6 23 13.9 E 17 28 9 15 1011.3 1009.5 0.0
01/04:00pm 34.5 31.4 10.4 23 14.2 ESE 17 28 9 15 1011.2 1009.4 0.0
01/03:30pm 33.7 31.0 10.3 24 13.7 ENE 15 24 8 13 1011.4 1009.6 0.0
01/03:00pm 34.2 31.8 11.4 25 13.6 ESE 15 26 8 14 1011.6 1009.8 0.0
01/02:30pm 32.7 29.3 10.7 26 12.9 ESE 19 26 10 14 1012.0 1010.2 0.0
01/02:00pm 33.9 30.8 12.3 27 13.0 ENE 20 30 11 16 1012.4 1010.6 0.0
01/01:30pm 32.8 30.0 11.3 27 12.7 ESE 17 28 9 15 1012.9 1011.2 0.0
01/01:00pm 32.2 30.3 12.9 31 11.7 ESE 15 24 8 13 1013.3 1011.6 0.0
01/12:30pm 32.9 31.1 14.5 33 11.4 ESE 17 26 9 14 1014.1 1012.3 0.0
01/12:00pm 31.1 28.9 13.4 34 10.7 ENE 17 22 9 12 1014.8 1013.0 0.0
01/11:30am 30.4 28.2 14.9 39 9.6 E 20 30 11 16 1015.3 1013.5 0.0
01/11:00am 29.4 26.5 15.1 41 8.8 ENE 24 33 13 18 1015.9 1014.2 0.0
01/10:30am 29.3 27.5 16.1 44 8.3 ENE 20 33 11 18 1016.2 1014.5 0.0
01/10:00am 27.8 25.2 15.8 48 7.5 ENE 24 35 13 19 1016.5 1014.8 0.0
01/09:30am 27.1 24.5 15.8 50 7.0 E 24 32 13 17 1016.8 1014.6 0.0
01/09:00am 27.0 24.6 16.3 52 6.7 E 24 32 13 17 1017.0 1014.8 0.2
01/08:30am 25.5 22.6 15.2 53 6.3 E 24 32 13 17 1016.8 1014.6 0.2
01/08:00am 24.3 22.1 15.0 56 5.6 E 20 28 11 15 1016.4 1014.3 0.2
01/07:30am 23.1 22.2 14.9 60 4.9 E 13 17 7 9 1016.3 1014.2 0.0
01/07:00am 21.5 21.3 14.6 65 4.1 ESE 9 13 5 7 1016.1 1014.0 0.0
01/06:30am 20.9 19.4 14.3 66 3.9 ESE 15 17 8 9 1015.7 1013.6 0.0
01/06:00am 20.9 19.8 14.3 66 3.9 E 13 15 7 8 1015.4 1013.3 0.0
01/05:30am 21.4 20.3 14.3 64 4.2 ESE 13 17 7 9 1015.2 1013.1 0.0
01/05:00am 21.7 21.0 14.4 63 4.3 E 11 13 6 7 1014.9 1012.8 0.0
01/04:30am 22.1 20.7 14.5 62 4.5 E 15 17 8 9 1014.8 1012.7 0.0
01/04:00am 21.8 20.4 14.4 63 4.4 ESE 15 19 8 10 1014.7 1012.6 0.0
01/03:30am 21.9 21.3 14.5 63 4.4 ESE 11 15 6 8 1014.7 1012.6 0.0
01/03:00am 22.4 21.4 14.5 61 4.7 ESE 13 17 7 9 1014.9 1012.8 0.0
01/02:30am 22.8 21.8 14.6 60 4.9 E 13 17 7 9 1015.1 1013.0 0.0
01/02:00am 23.2 22.4 15.0 60 4.9 E 13 17 7 9 1015.5 1013.4 0.0
01/01:30am 23.6 21.8 15.6 61 4.9 ENE 19 24 10 13 1015.9 1013.8 0.0
01/01:00am 23.7 22.5 16.2 63 4.6 ENE 17 22 9 12 1016.1 1014.0 0.0
01/12:30am 23.8 22.2 16.1 62 4.7 E 19 24 10 13 1016.4 1014.3 0.0
01/12:00am 24.0 22.4 16.0 61 4.9 ENE 19 30 10 16 1016.5 1014.4 0.0
 
Date/Time
EST
Temp
°C
App
Temp
°C
Dew
Point
Rel
Hum
%
Delta-T
°C
Wind Press
QNH
hPa
Press
MSL
hPa
Rain
since 9 am
mm
Dir
 
Spd
km/h
Gust
km/h
Spd
kts
Gust
kts
31/11:30pm 24.3 21.7 15.8 59 5.2 ENE 24 32 13 17 1016.6 1014.5 0.0
31/11:00pm 24.5 22.7 16.0 59 5.2 E 20 32 11 17 1016.6 1014.5 0.0
31/10:30pm 24.7 22.0 15.6 57 5.6 ENE 24 33 13 18 1016.9 1014.7 0.0
31/10:00pm 24.5 23.3 16.2 60 5.1 E 17 22 9 12 1017.1 1014.9 0.0
31/09:30pm 24.7 22.3 16.4 60 5.2 E 24 32 13 17 1016.9 1014.7 0.0
31/09:00pm 24.9 23.0 16.6 60 5.2 E 22 28 12 15 1016.5 1014.4 0.0
31/08:30pm 25.1 21.9 16.3 58 5.5 E 28 35 15 19 1016.4 1014.3 0.0
31/08:00pm 25.4 20.8 16.0 56 5.8 E 35 44 19 24 1016.2 1014.1 0.0
31/07:30pm 25.7 22.8 16.0 55 6.0 E 26 39 14 21 1016.2 1014.1 0.0
31/07:00pm 25.8 23.0 16.4 56 5.9 ESE 26 37 14 20 1015.7 1013.6 0.0
31/06:30pm 25.5 21.7 16.6 58 5.6 ESE 32 43 17 23 1015.3 1013.2 0.0
31/06:00pm 26.1 21.3 16.6 55 5.9 ESE 37 46 20 25 1014.8 1012.7 0.0
31/05:30pm 25.6 22.5 18.3 64 4.7 ESE 32 43 17 23 1014.5 1012.4 0.0
31/05:00pm 28.4 24.6 16.7 49 7.4 SE 32 46 17 25 1014.3 1012.1 0.0
31/04:30pm 29.5 24.5 16.0 44 8.5 SE 37 52 20 28 1013.6 1011.4 0.0
31/04:03pm 33.5 29.5 14.0 30 12.1 SE 28 48 15 26 1012.8 1010.7 0.0
31/04:00pm 34.6 31.1 13.4 28 13.0 ESE 24 35 13 19 1012.7 1010.6 0.0
31/03:30pm 33.8 31.0 13.3 29 12.6 ESE 20 33 11 18 1012.8 1010.7 0.0
31/03:00pm 34.7 32.7 14.0 28 12.8 ESE 17 24 9 13 1013.2 1011.1 0.0
31/02:30pm 34.7 32.2 14.0 28 12.8 SE 20 32 11 17 1013.7 1011.5 0.0
31/02:00pm 33.5 30.4 13.5 29 12.3 ESE 22 35 12 19 1014.3 1012.1 0.0
31/01:30pm 33.2 30.6 13.8 31 11.9 E 20 32 11 17 1014.8 1012.7 0.0
31/01:00pm 33.3 30.9 14.4 32 11.7 E 20 30 11 16 1015.3 1013.2 0.0
31/12:30pm 33.5 30.4 14.5 31 11.8 E 24 35 13 19 1015.9 1013.8 0.0
31/12:00pm 33.2 30.6 14.8 33 11.5 E 22 35 12 19 1016.6 1014.5 0.0
31/11:30am 32.1 28.9 14.3 34 11.0 ENE 24 32 13 17 1017.3 1015.1 0.0
31/11:00am 31.2 28.6 14.8 37 10.2 ENE 22 41 12 22 1017.7 1015.6 0.0
31/10:30am 31.0 28.2 15.4 38 9.8 NE 24 35 13 19 1018.0 1015.9 0.0
31/10:00am 30.3 28.1 16.0 42 9.0 NE 22 32 12 17 1018.3 1016.2 0.0
31/09:30am 29.0 25.6 15.9 45 8.2 ENE 28 37 15 20 1018.5 1016.4 0.0
31/09:00am 28.3 25.7 15.9 47 7.7 ENE 24 32 13 17 1018.8 1016.7 0.0
31/08:30am 27.1 24.5 15.8 50 7.0 NE 24 32 13 17 1018.5 1016.4 0.0
31/08:00am 26.2 24.2 15.6 52 6.5 ENE 20 28 11 15 1018.1 1016.0 0.0
31/07:30am 25.5 25.0 15.8 55 6.0 ENE 13 17 7 9 1017.9 1015.8 0.0
31/07:00am 24.3 24.9 15.8 59 5.2 E 7 11 4 6 1017.5 1015.4 0.0
31/06:30am 23.7 23.3 15.2 59 5.2 ENE 11 15 6 8 1016.8 1014.6 0.0
31/06:00am 23.9 23.9 15.1 58 5.3 ENE 9 13 5 7 1016.3 1014.2 0.0
31/05:30am 24.3 23.8 15.0 56 5.6 ENE 11 15 6 8 1016.2 1014.1 0.0
31/05:00am 24.6 23.5 14.4 53 6.1 ENE 13 17 7 9 1015.8 1013.7 0.0
31/04:30am 25.0 23.9 14.2 51 6.5 ENE 13 20 7 11 1015.6 1013.5 0.0
31/04:00am 25.1 24.0 14.3 51 6.5 ENE 13 17 7 9 1015.5 1013.4 0.0
31/03:30am 25.5 24.0 14.3 50 6.7 ENE 15 20 8 11 1015.3 1013.2 0.0
31/03:00am 25.9 24.0 14.1 48 7.1 ENE 17 28 9 15 1015.5 1013.4 0.0
31/02:30am 26.5 22.4 13.9 45 7.6 NE 28 39 15 21 1015.8 1013.7 0.0
31/02:00am 26.6 24.5 13.7 45 7.7 ENE 17 24 9 13 1016.2 1014.1 0.0
31/01:30am 27.3 24.8 14.0 44 8.0 NE 20 30 11 16 1016.4 1014.3 0.0
31/01:00am 27.7 24.2 13.3 41 8.6 NE 24 32 13 17 1016.5 1014.4 0.0
31/12:30am 27.7 26.2 14.3 43 8.1 NE 15 20 8 11 1016.8 1014.6 0.0
31/12:00am 28.6 26.9 14.8 43 8.5 ENE 17 20 9 11 1016.8 1014.6 0.0
 
Date/Time
EST
Temp
°C
App
Temp
°C
Dew
Point
Rel
Hum
%
Delta-T
°C
Wind Press
QNH
hPa
Press
MSL
hPa
Rain
since 9 am
mm
Dir
 
Spd
km/h
Gust
km/h
Spd
kts
Gust
kts
30/11:30pm 28.1 27.4 14.3 42 8.4 ESE 11 17 6 9 1016.6 1014.5 0.0
30/11:00pm 29.1 27.7 14.5 41 8.9 ESE 15 20 8 11 1016.8 1014.6 0.0
30/10:30pm 29.5 27.6 14.1 39 9.4 E 17 24 9 13 1016.9 1014.7 0.0
30/10:00pm 29.9 27.9 14.0 37 9.7 E 17 20 9 11 1017.1 1014.9 0.0
30/09:30pm 30.3 28.0 14.0 37 10.0 E 19 24 10 13 1017.0 1014.8 0.0
30/09:00pm 30.8 28.1 13.6 35 10.4 E 20 28 11 15 1017.0 1014.8 0.0
30/08:30pm 31.2 28.5 13.5 34 10.8 E 20 30 11 16 1016.8 1014.6 0.0
30/08:00pm 31.5 28.7 13.3 33 11.0 E 20 28 11 15 1016.5 1014.4 0.0
30/07:30pm 31.8 29.2 13.1 32 11.3 ESE 19 24 10 13 1016.1 1014.0 0.0
30/07:00pm 32.3 30.4 13.0 31 11.7 E 15 20 8 11 1015.8 1013.7 0.0
30/06:30pm 32.8 30.5 12.9 29 12.1 E 17 22 9 12 1015.4 1013.3 0.0
30/06:00pm 33.3 30.8 12.3 28 12.6 E 17 24 9 13 1015.1 1013.0 0.0
30/05:30pm 33.7 30.4 12.7 28 12.7 ESE 22 30 12 16 1014.8 1012.7 0.0
30/05:00pm 34.9 31.3 11.9 24 13.9 ESE 22 30 12 16 1014.5 1012.4 0.0
30/04:30pm 34.8 31.2 11.9 25 13.8 ESE 22 32 12 17 1014.5 1012.4 0.0
30/04:00pm 35.3 32.6 12.9 26 13.7 SE 19 28 10 15 1014.4 1012.2 0.0
30/03:30pm 34.4 30.3 11.5 25 13.7 ESE 24 32 13 17 1014.6 1012.5 0.0
30/03:00pm 34.9 31.3 11.9 24 13.9 ESE 22 33 12 18 1014.6 1012.5 0.0
30/02:30pm 34.3 31.3 12.0 25 13.4 E 19 35 10 19 1014.8 1012.7 0.0
30/02:00pm 35.8 33.2 13.3 26 13.9 E 19 32 10 17 1015.1 1013.0 0.0
30/01:30pm 36.0 33.5 14.1 27 13.7 E 20 32 11 17 1015.6 1013.5 0.0

Other Formats:

Comma delimited format used in spreadsheet applications
http://www.bom.gov.au/fwo/IDQ60801/IDQ60801.94343.axf

JavaScript Object Notation format (JSON) in row-major order
http://www.bom.gov.au/fwo/IDQ60801/IDQ60801.94343.json